createdAt,value
2023-01-30T00:04:17.583Z,14.02
2023-01-30T00:09:19.414Z,13.73
2023-01-30T00:14:21.080Z,14.40
2023-01-30T00:19:22.697Z,14.43
2023-01-30T00:24:24.378Z,16.17
2023-01-30T00:29:26.247Z,14.98
2023-01-30T00:34:29.275Z,15.38
2023-01-30T00:39:31.060Z,15.77
2023-01-30T00:44:51.330Z,16.60
2023-01-30T00:49:52.935Z,16.90
2023-01-30T00:54:54.614Z,18.40
2023-01-30T00:59:56.377Z,17.77
2023-01-30T01:04:57.996Z,18.05
2023-01-30T01:10:01.592Z,19.08
2023-01-30T01:15:03.312Z,19.13
2023-01-30T01:20:05.809Z,18.42
2023-01-30T01:25:10.668Z,18.52
2023-01-30T01:30:14.800Z,17.63
2023-01-30T01:35:20.063Z,18.83
2023-01-30T01:40:42.141Z,16.92
2023-01-30T01:45:44.550Z,19.17
2023-01-30T01:51:17.599Z,18.00
2023-01-30T01:56:20.883Z,17.55
2023-01-30T02:01:23.062Z,18.52
2023-01-30T02:06:29.392Z,17.88
2023-01-30T02:11:41.710Z,17.88
2023-01-30T02:16:46.184Z,19.08
2023-01-30T02:22:14.101Z,18.40
2023-01-30T02:27:41.601Z,17.95
2023-01-30T02:32:58.229Z,17.63
2023-01-30T02:38:16.692Z,17.10
2023-01-30T02:43:18.235Z,17.55
2023-01-30T02:48:30.614Z,18.35
2023-01-30T02:53:42.311Z,19.63
2023-01-30T02:59:08.727Z,16.38
2023-01-30T03:04:27.732Z,14.45
2023-01-30T03:09:42.434Z,13.95
2023-01-30T03:15:23.331Z,14.15
2023-01-30T03:20:39.205Z,14.38
2023-01-30T03:25:43.534Z,13.43
2023-01-30T03:30:45.452Z,14.00
2023-01-30T03:35:49.335Z,13.65
2023-01-30T03:40:51.154Z,13.73
2023-01-30T03:45:52.915Z,14.48
2023-01-30T03:50:56.258Z,12.52
2023-01-30T03:55:58.203Z,11.63
2023-01-30T04:01:05.488Z,10.05
2023-01-30T04:06:07.530Z,10.40
2023-01-30T04:11:09.816Z,11.23
2023-01-30T04:16:23.323Z,10.00
2023-01-30T04:21:48.264Z,10.77
2023-01-30T04:26:50.113Z,11.43
2023-01-30T04:31:51.797Z,11.75
2023-01-30T04:37:06.207Z,10.32
2023-01-30T04:42:08.251Z,10.45
2023-01-30T04:47:17.971Z,10.35
2023-01-30T04:52:19.657Z,10.10
2023-01-30T04:57:30.303Z,10.85
2023-01-30T05:02:32.014Z,10.80
2023-01-30T05:07:33.620Z,10.43
2023-01-30T05:12:35.291Z,10.57
2023-01-30T05:17:39.255Z,10.35
2023-01-30T05:22:40.820Z,10.82
2023-01-30T05:27:42.427Z,10.02
2023-01-30T05:32:44.160Z,9.50
2023-01-30T05:37:50.734Z,9.25
2023-01-30T05:42:52.464Z,9.15
2023-01-30T05:47:58.488Z,9.68
2023-01-30T05:53:04.931Z,9.10
2023-01-30T05:58:07.539Z,10.02
2023-01-30T06:03:09.357Z,9.02
2023-01-30T06:08:12.695Z,9.50
2023-01-30T06:13:14.325Z,10.13
2023-01-30T06:18:18.362Z,8.80
2023-01-30T06:23:21.624Z,9.48
2023-01-30T06:28:25.233Z,9.63
2023-01-30T06:33:27.071Z,9.10
2023-01-30T06:38:28.796Z,10.20
2023-01-30T06:43:36.404Z,9.15
2023-01-30T06:48:38.656Z,9.10
2023-01-30T06:53:40.499Z,10.27
2023-01-30T06:58:42.383Z,9.38
2023-01-30T07:03:44.039Z,8.95
2023-01-30T07:08:45.898Z,9.50
2023-01-30T07:13:53.851Z,9.02
2023-01-30T07:18:58.738Z,8.48
2023-01-30T07:24:00.419Z,8.88
2023-01-30T07:29:02.388Z,8.43
2023-01-30T07:34:05.299Z,8.05
2023-01-30T07:39:08.135Z,9.07
2023-01-30T07:44:14.804Z,7.70
2023-01-30T07:49:16.472Z,9.23
2023-01-30T07:54:18.397Z,9.45
2023-01-30T07:59:20.190Z,10.27
2023-01-30T08:04:21.886Z,9.48
2023-01-30T08:09:23.536Z,10.38
2023-01-30T08:14:25.553Z,9.85
2023-01-30T08:19:27.415Z,9.43
2023-01-30T08:24:29.005Z,10.25
2023-01-30T08:29:30.665Z,9.25
2023-01-30T08:34:32.668Z,10.60
2023-01-30T08:39:36.398Z,9.38
2023-01-30T08:44:38.757Z,9.18
2023-01-30T08:49:40.353Z,10.85
2023-01-30T08:54:41.928Z,10.93
2023-01-30T08:59:43.532Z,10.82
2023-01-30T09:04:45.095Z,11.38
2023-01-30T09:09:48.538Z,10.63
2023-01-30T09:14:50.261Z,10.80
2023-01-30T09:19:51.894Z,8.57
2023-01-30T09:24:53.462Z,8.23
2023-01-30T09:29:55.091Z,10.02
2023-01-30T09:34:56.616Z,9.60
2023-01-30T09:39:58.903Z,9.45
2023-01-30T09:45:16.374Z,10.02
2023-01-30T09:50:41.619Z,10.02
2023-01-30T09:55:46.351Z,10.23
2023-01-30T10:00:51.683Z,11.68
2023-01-30T10:05:59.063Z,11.77
2023-01-30T10:11:10.919Z,11.13
2023-01-30T10:16:21.547Z,10.05
2023-01-30T10:21:41.788Z,10.75
2023-01-30T10:26:43.856Z,9.73
2023-01-30T10:31:50.366Z,9.68
2023-01-30T10:37:00.117Z,9.48
2023-01-30T10:47:47.557Z,7.80
2023-01-30T10:53:22.786Z,8.00
2023-01-30T10:58:35.952Z,9.00
2023-01-30T11:03:48.412Z,8.18
2023-01-30T11:08:51.196Z,9.32
2023-01-30T11:14:05.504Z,8.70
2023-01-30T11:19:19.756Z,9.23
2023-01-30T11:24:31.657Z,7.95
2023-01-30T11:29:35.282Z,9.25
2023-01-30T11:34:36.946Z,8.80
2023-01-30T11:39:50.364Z,9.55
2023-01-30T11:45:06.580Z,10.45
2023-01-30T11:50:30.752Z,9.68
2023-01-30T11:55:36.841Z,10.32
2023-01-30T12:00:41.342Z,9.50
2023-01-30T12:05:46.118Z,10.10
2023-01-30T12:10:51.620Z,10.82
2023-01-30T12:16:13.119Z,11.00
2023-01-30T12:21:26.246Z,12.27
2023-01-30T12:26:40.973Z,12.88
2023-01-30T12:32:13.842Z,12.25
2023-01-30T12:37:19.750Z,12.88
2023-01-30T12:42:30.568Z,12.00
2023-01-30T12:47:44.095Z,13.27
2023-01-30T12:53:01.861Z,12.48
2023-01-30T12:58:26.498Z,12.75
2023-01-30T13:03:45.375Z,13.10
2023-01-30T13:09:00.328Z,13.65
2023-01-30T13:14:09.627Z,14.18
2023-01-30T13:19:41.197Z,14.05
2023-01-30T13:25:15.731Z,15.52
2023-01-30T13:30:18.781Z,15.85
2023-01-30T13:35:26.682Z,15.70
2023-01-30T13:40:38.637Z,14.88
2023-01-30T13:45:45.316Z,16.42
2023-01-30T13:50:59.262Z,15.70
2023-01-30T13:56:40.231Z,13.95
2023-01-30T14:02:04.299Z,15.75
2023-01-30T14:07:11.955Z,15.70
2023-01-30T14:12:23.835Z,16.05
2023-01-30T14:17:25.446Z,14.70
2023-01-30T14:22:51.919Z,14.27
2023-01-30T14:27:59.320Z,13.98
2023-01-30T14:33:02.874Z,13.30
2023-01-30T14:38:04.904Z,13.10
2023-01-30T14:43:12.465Z,13.23
2023-01-30T14:48:36.911Z,11.50
2023-01-30T14:53:53.073Z,11.68
2023-01-30T14:59:02.051Z,14.68
2023-01-30T15:04:04.939Z,11.83
2023-01-30T15:09:09.266Z,11.63
2023-01-30T15:14:32.038Z,10.93
2023-01-30T15:19:59.517Z,14.05
2023-01-30T15:25:06.724Z,12.70
2023-01-30T15:30:17.095Z,11.13
2023-01-30T15:35:18.932Z,10.48
2023-01-30T15:40:25.315Z,10.20
2023-01-30T15:45:52.095Z,10.13
2023-01-30T15:50:56.925Z,10.88
2023-01-30T15:56:01.752Z,10.27
2023-01-30T16:01:03.790Z,14.80
2023-01-30T16:06:05.635Z,13.38
2023-01-30T16:11:07.207Z,11.90
2023-01-30T16:16:20.049Z,13.38
2023-01-30T16:21:37.534Z,12.48
2023-01-30T16:26:43.245Z,12.52
2023-01-30T16:31:47.419Z,11.68
2023-01-30T16:36:51.412Z,12.00
2023-01-30T16:41:57.525Z,12.20
2023-01-30T16:47:06.354Z,11.30
2023-01-30T16:52:25.743Z,11.27
2023-01-30T16:57:43.255Z,10.15
2023-01-30T17:03:18.744Z,10.43
2023-01-30T17:08:55.523Z,11.50
2023-01-30T17:14:23.213Z,11.48
2023-01-30T17:19:24.732Z,10.88
2023-01-30T17:24:26.380Z,11.52
2023-01-30T17:29:42.723Z,11.75
2023-01-30T17:34:46.721Z,10.32
2023-01-30T17:39:48.722Z,9.15
2023-01-30T17:44:50.321Z,9.70
2023-01-30T17:49:51.895Z,8.07
2023-01-30T17:54:53.463Z,9.02
2023-01-30T17:59:55.299Z,8.55
2023-01-30T18:04:56.815Z,8.48
2023-01-30T18:09:58.449Z,8.70
2023-01-30T18:14:59.946Z,7.45
2023-01-30T18:20:03.578Z,9.00
2023-01-30T18:25:05.605Z,8.77
2023-01-30T18:30:07.777Z,7.80
2023-01-30T18:35:09.921Z,9.48
2023-01-30T18:40:15.073Z,8.48
2023-01-30T18:45:16.689Z,9.05
2023-01-30T18:50:18.521Z,8.52
2023-01-30T18:55:20.588Z,7.78
2023-01-30T19:00:22.868Z,8.10
2023-01-30T19:05:24.735Z,7.78
2023-01-30T19:10:26.470Z,7.97
2023-01-30T19:15:28.458Z,8.90
2023-01-30T19:20:31.068Z,7.97
2023-01-30T19:25:32.793Z,8.50
2023-01-30T19:30:34.367Z,7.50
2023-01-30T19:35:35.924Z,7.57
2023-01-30T19:40:45.914Z,7.47
2023-01-30T19:45:57.439Z,7.18
2023-01-30T19:51:02.690Z,7.82
2023-01-30T19:56:05.186Z,6.85
2023-01-30T20:01:07.794Z,6.70
2023-01-30T20:06:17.822Z,6.82
2023-01-30T20:11:21.752Z,8.98
2023-01-30T20:16:27.083Z,9.27
2023-01-30T20:21:30.378Z,7.45
2023-01-30T20:26:35.179Z,6.93
2023-01-30T20:31:40.407Z,8.93
2023-01-30T20:36:42.072Z,11.30
2023-01-30T20:41:43.638Z,9.27
2023-01-30T20:46:46.302Z,7.22
2023-01-30T20:51:50.211Z,6.72
2023-01-30T20:56:53.645Z,9.13
2023-01-30T21:01:55.281Z,8.85
2023-01-30T21:06:56.839Z,7.57
2023-01-30T21:12:01.001Z,7.60
2023-01-30T21:17:02.629Z,7.30
2023-01-30T21:22:09.481Z,7.75
2023-01-30T21:27:11.016Z,7.65
2023-01-30T21:32:12.591Z,7.50
2023-01-30T21:37:32.894Z,6.80
2023-01-30T21:42:53.013Z,6.40
2023-01-30T21:47:54.572Z,6.25
2023-01-30T21:52:56.378Z,6.00
2023-01-30T21:57:58.026Z,9.80
2023-01-30T22:02:59.524Z,6.13
2023-01-30T22:08:01.031Z,6.70
2023-01-30T22:13:02.559Z,6.53
2023-01-30T22:18:04.244Z,8.45
2023-01-30T22:23:05.781Z,7.28
2023-01-30T22:28:09.385Z,7.03
2023-01-30T22:33:11.696Z,6.43
2023-01-30T22:38:13.222Z,9.68
2023-01-30T22:43:14.775Z,10.52
2023-01-30T22:48:16.946Z,8.73
2023-01-30T22:53:18.462Z,13.68
2023-01-30T22:58:22.395Z,8.30
2023-01-30T23:03:24.025Z,8.23
2023-01-30T23:08:26.628Z,8.30
2023-01-30T23:13:28.135Z,8.75
2023-01-30T23:18:48.217Z,9.40
2023-01-30T23:23:59.195Z,7.20
2023-01-30T23:29:02.448Z,7.72
2023-01-30T23:34:06.280Z,6.55
2023-01-30T23:39:07.968Z,4.88
2023-01-30T23:44:10.007Z,4.55
2023-01-30T23:49:13.679Z,6.60
2023-01-30T23:54:15.195Z,3.80
2023-01-30T23:59:16.717Z,4.82
